sensor_id;sensor_type;location;lat;lon;timestamp;pressure;altitude;pressure_sealevel;temperature;humidity
34658;BME280;20865;43.312;27.152;2023-03-19T00:00:09;101108.30;;;15.11;44.90
34658;BME280;20865;43.312;27.152;2023-03-19T00:02:36;101106.27;;;15.30;44.71
34658;BME280;20865;43.312;27.152;2023-03-19T00:05:03;101108.86;;;15.33;44.56
34658;BME280;20865;43.312;27.152;2023-03-19T00:07:31;101110.31;;;15.30;44.42
34658;BME280;20865;43.312;27.152;2023-03-19T00:09:58;101109.11;;;15.38;44.41
34658;BME280;20865;43.312;27.152;2023-03-19T00:12:24;101106.12;;;15.34;44.52
34658;BME280;20865;43.312;27.152;2023-03-19T00:14:51;101108.27;;;15.24;44.69
34658;BME280;20865;43.312;27.152;2023-03-19T00:17:18;101106.82;;;15.39;44.39
34658;BME280;20865;43.312;27.152;2023-03-19T00:19:45;101105.55;;;15.38;44.47
34658;BME280;20865;43.312;27.152;2023-03-19T00:22:12;101108.92;;;15.43;44.52
34658;BME280;20865;43.312;27.152;2023-03-19T00:24:38;101107.98;;;15.44;44.29
34658;BME280;20865;43.312;27.152;2023-03-19T00:27:05;101104.23;;;15.48;44.29
34658;BME280;20865;43.312;27.152;2023-03-19T00:29:33;101097.97;;;15.47;44.12
34658;BME280;20865;43.312;27.152;2023-03-19T00:31:59;101099.75;;;15.48;44.10
34658;BME280;20865;43.312;27.152;2023-03-19T00:34:28;101098.92;;;15.46;44.19
34658;BME280;20865;43.312;27.152;2023-03-19T00:36:54;101100.16;;;15.49;43.99
34658;BME280;20865;43.312;27.152;2023-03-19T00:39:21;101096.70;;;15.46;44.03
34658;BME280;20865;43.312;27.152;2023-03-19T00:41:48;101095.17;;;15.51;43.94
34658;BME280;20865;43.312;27.152;2023-03-19T00:44:15;101093.89;;;15.49;43.91
34658;BME280;20865;43.312;27.152;2023-03-19T00:46:44;101093.35;;;15.51;43.84
34658;BME280;20865;43.312;27.152;2023-03-19T00:49:11;101095.75;;;15.47;43.91
34658;BME280;20865;43.312;27.152;2023-03-19T00:51:38;101092.19;;;15.46;43.79
34658;BME280;20865;43.312;27.152;2023-03-19T00:54:06;101088.08;;;15.48;43.90
34658;BME280;20865;43.312;27.152;2023-03-19T00:56:33;101087.39;;;15.43;43.87
34658;BME280;20865;43.312;27.152;2023-03-19T00:59:00;101084.22;;;15.43;43.90
34658;BME280;20865;43.312;27.152;2023-03-19T01:01:27;101085.57;;;15.43;43.91
34658;BME280;20865;43.312;27.152;2023-03-19T01:03:54;101074.63;;;15.24;44.43
34658;BME280;20865;43.312;27.152;2023-03-19T01:06:21;101073.90;;;15.19;44.44
34658;BME280;20865;43.312;27.152;2023-03-19T01:08:48;101073.42;;;15.20;44.49
34658;BME280;20865;43.312;27.152;2023-03-19T01:11:14;101073.31;;;15.11;44.78
34658;BME280;20865;43.312;27.152;2023-03-19T01:13:43;101072.48;;;15.09;44.96
34658;BME280;20865;43.312;27.152;2023-03-19T01:16:10;101078.19;;;15.13;44.93
34658;BME280;20865;43.312;27.152;2023-03-19T01:18:36;101073.90;;;15.19;44.67
34658;BME280;20865;43.312;27.152;2023-03-19T01:21:03;101072.04;;;15.10;45.06
34658;BME280;20865;43.312;27.152;2023-03-19T01:23:31;101071.09;;;15.22;44.76
34658;BME280;20865;43.312;27.152;2023-03-19T01:25:57;101076.63;;;15.31;44.51
34658;BME280;20865;43.312;27.152;2023-03-19T01:28:24;101074.11;;;15.38;44.33
34658;BME280;20865;43.312;27.152;2023-03-19T01:30:51;101073.05;;;15.42;44.27
34658;BME280;20865;43.312;27.152;2023-03-19T01:33:18;101076.84;;;15.37;44.37
34658;BME280;20865;43.312;27.152;2023-03-19T01:35:45;101076.43;;;15.47;44.19
34658;BME280;20865;43.312;27.152;2023-03-19T01:38:15;101074.45;;;15.53;44.01
34658;BME280;20865;43.312;27.152;2023-03-19T01:40:46;101075.05;;;15.49;44.11
34658;BME280;20865;43.312;27.152;2023-03-19T01:43:14;101074.21;;;15.47;44.17
34658;BME280;20865;43.312;27.152;2023-03-19T01:45:42;101073.11;;;15.53;44.11
34658;BME280;20865;43.312;27.152;2023-03-19T01:48:17;101069.66;;;15.49;44.23
34658;BME280;20865;43.312;27.152;2023-03-19T01:50:43;101062.09;;;15.47;44.12
34658;BME280;20865;43.312;27.152;2023-03-19T01:53:11;101061.15;;;15.48;44.13
34658;BME280;20865;43.312;27.152;2023-03-19T01:55:39;101062.11;;;15.35;44.38
34658;BME280;20865;43.312;27.152;2023-03-19T01:58:07;101068.88;;;15.34;44.44
34658;BME280;20865;43.312;27.152;2023-03-19T02:00:35;101068.59;;;15.30;44.64
34658;BME280;20865;43.312;27.152;2023-03-19T02:03:03;101067.13;;;15.21;44.63
34658;BME280;20865;43.312;27.152;2023-03-19T02:05:31;101068.70;;;15.15;44.89
34658;BME280;20865;43.312;27.152;2023-03-19T02:07:59;101067.94;;;15.11;45.10
34658;BME280;20865;43.312;27.152;2023-03-19T02:10:27;101076.48;;;15.11;45.04
34658;BME280;20865;43.312;27.152;2023-03-19T02:12:54;101075.17;;;15.09;44.96
34658;BME280;20865;43.312;27.152;2023-03-19T02:15:21;101084.92;;;15.13;45.05
34658;BME280;20865;43.312;27.152;2023-03-19T02:17:48;101076.12;;;15.20;44.94
34658;BME280;20865;43.312;27.152;2023-03-19T02:25:34;101081.17;;;15.17;44.95
34658;BME280;20865;43.312;27.152;2023-03-19T02:28:00;101079.06;;;15.25;44.76
34658;BME280;20865;43.312;27.152;2023-03-19T02:30:29;101082.12;;;15.28;44.70
34658;BME280;20865;43.312;27.152;2023-03-19T02:32:55;101087.97;;;15.28;44.67
34658;BME280;20865;43.312;27.152;2023-03-19T02:35:22;101083.09;;;15.37;44.53
34658;BME280;20865;43.312;27.152;2023-03-19T02:37:50;101086.56;;;15.29;44.62
34658;BME280;20865;43.312;27.152;2023-03-19T02:40:29;101085.17;;;15.31;44.66
34658;BME280;20865;43.312;27.152;2023-03-19T02:42:57;101092.59;;;15.36;44.43
34658;BME280;20865;43.312;27.152;2023-03-19T02:45:28;101096.52;;;15.39;44.32
34658;BME280;20865;43.312;27.152;2023-03-19T02:47:56;101094.77;;;15.38;44.33
34658;BME280;20865;43.312;27.152;2023-03-19T02:50:23;101094.13;;;15.31;44.33
34658;BME280;20865;43.312;27.152;2023-03-19T02:52:50;101107.22;;;15.40;44.13
34658;BME280;20865;43.312;27.152;2023-03-19T02:55:17;101105.88;;;15.29;44.28
34658;BME280;20865;43.312;27.152;2023-03-19T02:57:44;101105.91;;;15.27;44.41
34658;BME280;20865;43.312;27.152;2023-03-19T03:00:11;101103.58;;;15.30;44.30
34658;BME280;20865;43.312;27.152;2023-03-19T03:02:38;101106.27;;;15.30;44.32
34658;BME280;20865;43.312;27.152;2023-03-19T03:05:06;101110.97;;;15.36;44.15
34658;BME280;20865;43.312;27.152;2023-03-19T03:07:33;101109.55;;;15.26;44.27
34658;BME280;20865;43.312;27.152;2023-03-19T03:10:00;101112.23;;;15.14;44.56
34658;BME280;20865;43.312;27.152;2023-03-19T03:12:27;101114.64;;;15.22;44.43
34658;BME280;20865;43.312;27.152;2023-03-19T03:14:54;101117.40;;;15.20;44.43
34658;BME280;20865;43.312;27.152;2023-03-19T03:17:21;101115.87;;;15.13;44.67
34658;BME280;20865;43.312;27.152;2023-03-19T03:19:48;101114.63;;;15.10;44.81
34658;BME280;20865;43.312;27.152;2023-03-19T03:22:15;101113.59;;;15.01;44.97
34658;BME280;20865;43.312;27.152;2023-03-19T03:24:42;101124.87;;;14.99;45.09
34658;BME280;20865;43.312;27.152;2023-03-19T03:27:09;101124.05;;;15.10;44.86
34658;BME280;20865;43.312;27.152;2023-03-19T03:29:36;101137.06;;;15.09;44.98
34658;BME280;20865;43.312;27.152;2023-03-19T03:32:03;101123.31;;;15.05;45.12
34658;BME280;20865;43.312;27.152;2023-03-19T03:34:31;101128.59;;;15.08;44.95
34658;BME280;20865;43.312;27.152;2023-03-19T03:36:58;101126.49;;;15.16;44.73
34658;BME280;20865;43.312;27.152;2023-03-19T03:39:25;101130.09;;;15.17;44.67
34658;BME280;20865;43.312;27.152;2023-03-19T03:41:53;101129.80;;;15.24;44.68
34658;BME280;20865;43.312;27.152;2023-03-19T03:44:19;101130.42;;;15.19;44.71
34658;BME280;20865;43.312;27.152;2023-03-19T03:46:46;101128.46;;;15.24;44.56
34658;BME280;20865;43.312;27.152;2023-03-19T03:49:14;101128.27;;;15.17;44.71
34658;BME280;20865;43.312;27.152;2023-03-19T03:51:42;101123.00;;;15.14;44.77
34658;BME280;20865;43.312;27.152;2023-03-19T03:54:09;101123.88;;;15.27;44.66
34658;BME280;20865;43.312;27.152;2023-03-19T03:56:35;101131.63;;;15.36;44.43
34658;BME280;20865;43.312;27.152;2023-03-19T03:59:02;101128.47;;;15.36;44.44
34658;BME280;20865;43.312;27.152;2023-03-19T04:01:29;101132.69;;;15.43;44.29
34658;BME280;20865;43.312;27.152;2023-03-19T04:03:56;101127.63;;;15.59;43.99
34658;BME280;20865;43.312;27.152;2023-03-19T04:06:23;101130.92;;;15.67;43.77
34658;BME280;20865;43.312;27.152;2023-03-19T04:08:50;101128.00;;;15.74;43.59
34658;BME280;20865;43.312;27.152;2023-03-19T04:11:17;101134.55;;;15.78;43.55
34658;BME280;20865;43.312;27.152;2023-03-19T04:13:44;101134.44;;;15.81;43.43
34658;BME280;20865;43.312;27.152;2023-03-19T04:16:11;101132.69;;;15.80;43.49
34658;BME280;20865;43.312;27.152;2023-03-19T04:18:40;101140.66;;;15.83;43.38
34658;BME280;20865;43.312;27.152;2023-03-19T04:21:06;101143.20;;;15.86;43.35
34658;BME280;20865;43.312;27.152;2023-03-19T04:23:33;101137.89;;;15.85;43.41
34658;BME280;20865;43.312;27.152;2023-03-19T04:26:01;101134.44;;;15.81;43.40
34658;BME280;20865;43.312;27.152;2023-03-19T04:28:28;101140.70;;;15.82;43.37
34658;BME280;20865;43.312;27.152;2023-03-19T04:30:59;101136.02;;;15.75;43.59
34658;BME280;20865;43.312;27.152;2023-03-19T04:33:26;101141.08;;;15.73;43.66
34658;BME280;20865;43.312;27.152;2023-03-19T04:35:54;101138.49;;;15.69;43.69
34658;BME280;20865;43.312;27.152;2023-03-19T04:38:22;101148.97;;;15.77;43.54
34658;BME280;20865;43.312;27.152;2023-03-19T04:40:51;101150.67;;;15.80;43.59
34658;BME280;20865;43.312;27.152;2023-03-19T04:43:18;101144.34;;;15.81;43.53
34658;BME280;20865;43.312;27.152;2023-03-19T04:45:45;101144.73;;;15.82;43.45
34658;BME280;20865;43.312;27.152;2023-03-19T04:48:12;101156.86;;;15.82;43.37
34658;BME280;20865;43.312;27.152;2023-03-19T04:50:39;101158.21;;;15.82;43.49
34658;BME280;20865;43.312;27.152;2023-03-19T04:53:06;101163.48;;;15.85;43.35
34658;BME280;20865;43.312;27.152;2023-03-19T04:55:32;101156.67;;;15.86;43.44
34658;BME280;20865;43.312;27.152;2023-03-19T04:57:59;101147.91;;;15.81;43.31
34658;BME280;20865;43.312;27.152;2023-03-19T05:00:26;101156.69;;;15.75;43.43
34658;BME280;20865;43.312;27.152;2023-03-19T05:02:55;101156.88;;;15.70;43.53
34658;BME280;20865;43.312;27.152;2023-03-19T05:05:22;101156.80;;;15.71;43.58
34658;BME280;20865;43.312;27.152;2023-03-19T05:07:49;101162.66;;;15.71;43.52
34658;BME280;20865;43.312;27.152;2023-03-19T05:10:16;101158.88;;;15.63;43.76
34658;BME280;20865;43.312;27.152;2023-03-19T05:12:42;101164.49;;;15.57;43.87
34658;BME280;20865;43.312;27.152;2023-03-19T05:15:09;101167.30;;;15.54;43.91
34658;BME280;20865;43.312;27.152;2023-03-19T05:17:36;101172.57;;;15.57;43.97
34658;BME280;20865;43.312;27.152;2023-03-19T05:20:03;101162.16;;;15.60;43.93
34658;BME280;20865;43.312;27.152;2023-03-19T05:22:30;101169.11;;;15.65;43.90
34658;BME280;20865;43.312;27.152;2023-03-19T05:24:57;101170.05;;;15.64;43.99
34658;BME280;20865;43.312;27.152;2023-03-19T05:27:24;101169.88;;;15.70;43.80
34658;BME280;20865;43.312;27.152;2023-03-19T05:29:51;101171.39;;;15.78;43.72
34658;BME280;20865;43.312;27.152;2023-03-19T05:32:18;101173.50;;;15.81;43.73
34658;BME280;20865;43.312;27.152;2023-03-19T05:34:45;101176.08;;;15.84;43.74
34658;BME280;20865;43.312;27.152;2023-03-19T05:37:12;101171.45;;;15.88;43.78
34658;BME280;20865;43.312;27.152;2023-03-19T05:39:39;101174.32;;;15.95;43.53
34658;BME280;20865;43.312;27.152;2023-03-19T05:42:06;101173.05;;;15.93;43.45
34658;BME280;20865;43.312;27.152;2023-03-19T05:44:33;101172.39;;;15.99;43.39
34658;BME280;20865;43.312;27.152;2023-03-19T05:47:00;101168.70;;;16.01;43.23
34658;BME280;20865;43.312;27.152;2023-03-19T05:49:28;101173.98;;;16.04;43.21
34658;BME280;20865;43.312;27.152;2023-03-19T05:51:55;101168.75;;;16.00;43.34
34658;BME280;20865;43.312;27.152;2023-03-19T05:54:22;101173.63;;;16.02;43.23
34658;BME280;20865;43.312;27.152;2023-03-19T05:56:49;101180.62;;;16.17;43.15
34658;BME280;20865;43.312;27.152;2023-03-19T05:59:16;101174.23;;;16.20;43.03
34658;BME280;20865;43.312;27.152;2023-03-19T06:01:43;101171.06;;;16.20;43.13
34658;BME280;20865;43.312;27.152;2023-03-19T06:04:10;101182.13;;;16.25;42.94
34658;BME280;20865;43.312;27.152;2023-03-19T06:06:37;101176.62;;;16.28;43.01
34658;BME280;20865;43.312;27.152;2023-03-19T06:09:03;101180.66;;;16.28;42.70
34658;BME280;20865;43.312;27.152;2023-03-19T06:11:30;101187.84;;;16.29;42.48
34658;BME280;20865;43.312;27.152;2023-03-19T06:13:57;101181.73;;;16.24;42.50
34658;BME280;20865;43.312;27.152;2023-03-19T06:16:24;101182.69;;;16.23;42.32
34658;BME280;20865;43.312;27.152;2023-03-19T06:18:51;101184.31;;;16.27;42.07
34658;BME280;20865;43.312;27.152;2023-03-19T06:21:18;101185.58;;;16.28;41.85
34658;BME280;20865;43.312;27.152;2023-03-19T06:23:45;101173.80;;;16.31;41.86
34658;BME280;20865;43.312;27.152;2023-03-19T06:26:12;101181.89;;;16.31;41.80
34658;BME280;20865;43.312;27.152;2023-03-19T06:28:39;101177.97;;;16.28;42.05
34658;BME280;20865;43.312;27.152;2023-03-19T06:31:05;101169.83;;;16.17;42.11
34658;BME280;20865;43.312;27.152;2023-03-19T06:33:32;101182.16;;;16.13;41.88
34658;BME280;20865;43.312;27.152;2023-03-19T06:36:01;101176.13;;;16.06;41.97
34658;BME280;20865;43.312;27.152;2023-03-19T06:38:28;101166.98;;;16.10;41.94
34658;BME280;20865;43.312;27.152;2023-03-19T06:40:54;101176.77;;;16.13;42.15
34658;BME280;20865;43.312;27.152;2023-03-19T06:43:22;101171.50;;;16.22;42.07
34658;BME280;20865;43.312;27.152;2023-03-19T06:45:49;101174.40;;;16.27;42.03
34658;BME280;20865;43.312;27.152;2023-03-19T06:48:16;101175.98;;;16.33;41.97
34658;BME280;20865;43.312;27.152;2023-03-19T06:50:46;101173.69;;;16.34;41.88
34658;BME280;20865;43.312;27.152;2023-03-19T06:53:13;101177.84;;;16.42;41.63
34658;BME280;20865;43.312;27.152;2023-03-19T06:55:40;101176.02;;;16.43;41.50
34658;BME280;20865;43.312;27.152;2023-03-19T06:58:07;101179.47;;;16.47;41.45
34658;BME280;20865;43.312;27.152;2023-03-19T07:00:34;101176.53;;;16.53;41.19
34658;BME280;20865;43.312;27.152;2023-03-19T07:03:01;101169.47;;;16.60;41.00
34658;BME280;20865;43.312;27.152;2023-03-19T07:05:28;101171.37;;;16.68;41.00
34658;BME280;20865;43.312;27.152;2023-03-19T07:07:55;101178.30;;;16.76;40.73
34658;BME280;20865;43.312;27.152;2023-03-19T07:10:22;101174.05;;;16.80;40.68
34658;BME280;20865;43.312;27.152;2023-03-19T07:12:49;101183.44;;;16.82;40.82
34658;BME280;20865;43.312;27.152;2023-03-19T07:15:16;101179.31;;;16.83;40.58
34658;BME280;20865;43.312;27.152;2023-03-19T07:17:47;101176.22;;;16.82;40.32
34658;BME280;20865;43.312;27.152;2023-03-19T07:20:14;101168.20;;;16.81;40.45
34658;BME280;20865;43.312;27.152;2023-03-19T07:22:41;101172.17;;;16.82;40.42
34658;BME280;20865;43.312;27.152;2023-03-19T07:25:08;101170.56;;;16.88;40.55
34658;BME280;20865;43.312;27.152;2023-03-19T07:27:35;101171.17;;;16.85;40.54
34658;BME280;20865;43.312;27.152;2023-03-19T07:30:02;101170.84;;;16.93;40.49
34658;BME280;20865;43.312;27.152;2023-03-19T07:32:29;101177.36;;;16.87;40.52
34658;BME280;20865;43.312;27.152;2023-03-19T07:34:57;101174.00;;;16.82;40.52
34658;BME280;20865;43.312;27.152;2023-03-19T07:37:24;101178.86;;;16.94;40.72
34658;BME280;20865;43.312;27.152;2023-03-19T07:39:52;101183.39;;;17.04;40.06
34658;BME280;20865;43.312;27.152;2023-03-19T07:42:19;101181.44;;;17.07;40.23
34658;BME280;20865;43.312;27.152;2023-03-19T07:44:46;101180.36;;;17.11;40.25
34658;BME280;20865;43.312;27.152;2023-03-19T07:47:13;101178.34;;;17.06;40.44
34658;BME280;20865;43.312;27.152;2023-03-19T07:49:40;101183.75;;;17.17;40.33
34658;BME280;20865;43.312;27.152;2023-03-19T07:52:07;101184.16;;;17.28;40.33
34658;BME280;20865;43.312;27.152;2023-03-19T07:54:34;101181.98;;;17.46;39.68
34658;BME280;20865;43.312;27.152;2023-03-19T07:57:01;101175.70;;;17.56;40.01
34658;BME280;20865;43.312;27.152;2023-03-19T07:59:28;101172.63;;;17.74;39.28
34658;BME280;20865;43.312;27.152;2023-03-19T08:01:54;101179.25;;;17.87;38.60
34658;BME280;20865;43.312;27.152;2023-03-19T08:04:21;101178.12;;;17.82;38.46
34658;BME280;20865;43.312;27.152;2023-03-19T08:06:48;101171.38;;;17.82;38.19
34658;BME280;20865;43.312;27.152;2023-03-19T08:09:15;101168.17;;;17.73;38.11
34658;BME280;20865;43.312;27.152;2023-03-19T08:11:42;101169.05;;;17.73;38.49
34658;BME280;20865;43.312;27.152;2023-03-19T08:14:09;101169.17;;;17.91;38.52
34658;BME280;20865;43.312;27.152;2023-03-19T08:16:36;101172.02;;;18.17;38.12
34658;BME280;20865;43.312;27.152;2023-03-19T08:19:03;101163.96;;;18.34;37.08
34658;BME280;20865;43.312;27.152;2023-03-19T08:21:30;101157.62;;;18.25;37.38
34658;BME280;20865;43.312;27.152;2023-03-19T08:23:58;101163.48;;;18.35;37.45
34658;BME280;20865;43.312;27.152;2023-03-19T08:26:25;101158.78;;;18.66;36.83
34658;BME280;20865;43.312;27.152;2023-03-19T08:28:52;101161.95;;;19.01;35.93
34658;BME280;20865;43.312;27.152;2023-03-19T08:31:19;101167.50;;;19.24;35.45
34658;BME280;20865;43.312;27.152;2023-03-19T08:33:46;101161.91;;;19.54;35.16
34658;BME280;20865;43.312;27.152;2023-03-19T08:36:13;101159.19;;;19.71;34.97
34658;BME280;20865;43.312;27.152;2023-03-19T08:38:42;101162.07;;;19.92;34.60
34658;BME280;20865;43.312;27.152;2023-03-19T08:41:09;101159.59;;;20.28;34.27
34658;BME280;20865;43.312;27.152;2023-03-19T08:43:36;101161.97;;;20.50;33.69
34658;BME280;20865;43.312;27.152;2023-03-19T08:46:04;101159.70;;;20.58;33.67
34658;BME280;20865;43.312;27.152;2023-03-19T08:48:31;101158.06;;;20.79;32.97
34658;BME280;20865;43.312;27.152;2023-03-19T08:50:58;101160.52;;;20.90;33.04
34658;BME280;20865;43.312;27.152;2023-03-19T08:53:27;101164.05;;;21.00;32.78
34658;BME280;20865;43.312;27.152;2023-03-19T08:55:55;101161.84;;;21.06;32.48
34658;BME280;20865;43.312;27.152;2023-03-19T08:58:22;101160.21;;;21.18;32.32
34658;BME280;20865;43.312;27.152;2023-03-19T09:00:49;101158.23;;;21.36;31.81
34658;BME280;20865;43.312;27.152;2023-03-19T09:03:16;101154.84;;;21.39;31.60
34658;BME280;20865;43.312;27.152;2023-03-19T09:05:43;101143.67;;;21.37;31.60
34658;BME280;20865;43.312;27.152;2023-03-19T09:08:10;101141.58;;;21.19;31.61
34658;BME280;20865;43.312;27.152;2023-03-19T09:10:37;101149.55;;;21.22;31.97
34658;BME280;20865;43.312;27.152;2023-03-19T09:13:04;101144.29;;;21.19;31.64
34658;BME280;20865;43.312;27.152;2023-03-19T09:15:31;101150.14;;;21.20;32.07
34658;BME280;20865;43.312;27.152;2023-03-19T09:17:58;101146.64;;;21.25;32.35
34658;BME280;20865;43.312;27.152;2023-03-19T09:20:25;101137.80;;;21.22;31.72
34658;BME280;20865;43.312;27.152;2023-03-19T09:22:52;101138.87;;;21.26;32.29
34658;BME280;20865;43.312;27.152;2023-03-19T09:25:19;101132.62;;;21.40;31.65
34658;BME280;20865;43.312;27.152;2023-03-19T09:27:45;101119.84;;;21.19;31.80
34658;BME280;20865;43.312;27.152;2023-03-19T09:30:12;101125.06;;;21.08;32.62
34658;BME280;20865;43.312;27.152;2023-03-19T09:32:40;101121.94;;;21.37;31.68
34658;BME280;20865;43.312;27.152;2023-03-19T09:35:07;101117.78;;;21.38;31.76
34658;BME280;20865;43.312;27.152;2023-03-19T09:37:34;101118.08;;;21.34;31.94
34658;BME280;20865;43.312;27.152;2023-03-19T09:40:03;101119.44;;;21.34;31.49
34658;BME280;20865;43.312;27.152;2023-03-19T09:42:52;101118.30;;;21.22;31.35
34658;BME280;20865;43.312;27.152;2023-03-19T09:45:17;101112.86;;;21.15;31.78
34658;BME280;20865;43.312;27.152;2023-03-19T09:47:47;101108.97;;;21.19;32.10
34658;BME280;20865;43.312;27.152;2023-03-19T09:50:16;101105.55;;;21.38;33.05
34658;BME280;20865;43.312;27.152;2023-03-19T09:52:46;101101.97;;;21.52;32.09
34658;BME280;20865;43.312;27.152;2023-03-19T09:57:52;101095.25;;;21.36;32.08
34658;BME280;20865;43.312;27.152;2023-03-19T10:00:31;101094.08;;;21.40;31.90
34658;BME280;20865;43.312;27.152;2023-03-19T10:03:02;101094.00;;;21.35;32.30
34658;BME280;20865;43.312;27.152;2023-03-19T10:05:35;101090.68;;;21.44;31.74
34658;BME280;20865;43.312;27.152;2023-03-19T10:08:04;101091.36;;;21.40;31.65
34658;BME280;20865;43.312;27.152;2023-03-19T10:13:07;101087.87;;;21.67;32.34
34658;BME280;20865;43.312;27.152;2023-03-19T10:15:29;101074.45;;;21.28;31.26
34658;BME280;20865;43.312;27.152;2023-03-19T10:18:01;101071.95;;;21.54;31.86
34658;BME280;20865;43.312;27.152;2023-03-19T10:25:36;101061.38;;;22.19;31.19
34658;BME280;20865;43.312;27.152;2023-03-19T10:28:14;101063.58;;;22.27;31.45
34658;BME280;20865;43.312;27.152;2023-03-19T10:30:39;101055.35;;;22.14;30.85
34658;BME280;20865;43.312;27.152;2023-03-19T10:34:10;101053.94;;;22.35;31.82
34658;BME280;20865;43.312;27.152;2023-03-19T10:35:47;101051.44;;;22.45;31.14
34658;BME280;20865;43.312;27.152;2023-03-19T10:38:19;101041.66;;;22.16;30.87
34658;BME280;20865;43.312;27.152;2023-03-19T10:41:11;101045.98;;;21.91;31.15
34658;BME280;20865;43.312;27.152;2023-03-19T10:43:33;101037.17;;;21.80;30.93
34658;BME280;20865;43.312;27.152;2023-03-19T10:46:01;101032.53;;;22.02;31.33
34658;BME280;20865;43.312;27.152;2023-03-19T10:48:28;101022.21;;;21.80;32.11
34658;BME280;20865;43.312;27.152;2023-03-19T10:50:56;101020.45;;;21.86;31.30
34658;BME280;20865;43.312;27.152;2023-03-19T10:58:33;101002.98;;;21.83;30.58
34658;BME280;20865;43.312;27.152;2023-03-19T11:03:33;100996.33;;;21.95;31.42
34658;BME280;20865;43.312;27.152;2023-03-19T11:08:56;100986.72;;;22.23;31.05
34658;BME280;20865;43.312;27.152;2023-03-19T11:11:24;100983.98;;;22.63;30.28
34658;BME280;20865;43.312;27.152;2023-03-19T11:13:51;100986.16;;;22.83;29.73
34658;BME280;20865;43.312;27.152;2023-03-19T11:16:18;100983.69;;;22.93;29.13
34658;BME280;20865;43.312;27.152;2023-03-19T11:18:46;100982.49;;;23.10;28.70
34658;BME280;20865;43.312;27.152;2023-03-19T11:21:29;100967.05;;;22.98;29.41
34658;BME280;20865;43.312;27.152;2023-03-19T11:24:01;100968.41;;;22.98;29.70
34658;BME280;20865;43.312;27.152;2023-03-19T11:26:28;100971.00;;;22.99;29.08
34658;BME280;20865;43.312;27.152;2023-03-19T11:29:00;100963.48;;;23.16;29.09
34658;BME280;20865;43.312;27.152;2023-03-19T11:31:29;100962.98;;;23.16;28.74
34658;BME280;20865;43.312;27.152;2023-03-19T11:36:29;100959.05;;;23.20;28.76
34658;BME280;20865;43.312;27.152;2023-03-19T11:44:15;100945.83;;;23.40;28.24
34658;BME280;20865;43.312;27.152;2023-03-19T11:46:42;100947.66;;;23.39;28.35
34658;BME280;20865;43.312;27.152;2023-03-19T11:49:26;100937.45;;;23.30;28.04
34658;BME280;20865;43.312;27.152;2023-03-19T11:51:53;100936.88;;;23.19;27.42
34658;BME280;20865;43.312;27.152;2023-03-19T11:57:09;100930.31;;;23.22;28.08
34658;BME280;20865;43.312;27.152;2023-03-19T12:07:12;100929.31;;;23.54;27.67
34658;BME280;20865;43.312;27.152;2023-03-19T12:09:39;100933.64;;;23.57;27.46
34658;BME280;20865;43.312;27.152;2023-03-19T12:17:21;100924.74;;;23.60;27.15
34658;BME280;20865;43.312;27.152;2023-03-19T12:19:52;100926.88;;;23.62;27.53
34658;BME280;20865;43.312;27.152;2023-03-19T12:22:37;100925.16;;;23.67;27.24
34658;BME280;20865;43.312;27.152;2023-03-19T12:27:58;100922.56;;;23.65;27.09
34658;BME280;20865;43.312;27.152;2023-03-19T12:35:28;100906.20;;;23.65;26.87
34658;BME280;20865;43.312;27.152;2023-03-19T12:40:51;100900.75;;;23.65;26.55
34658;BME280;20865;43.312;27.152;2023-03-19T12:43:22;100900.32;;;23.71;25.87
34658;BME280;20865;43.312;27.152;2023-03-19T12:45:45;100902.42;;;23.73;25.98
34658;BME280;20865;43.312;27.152;2023-03-19T12:48:17;100891.00;;;23.68;26.31
34658;BME280;20865;43.312;27.152;2023-03-19T12:50:44;100896.10;;;23.73;26.53
34658;BME280;20865;43.312;27.152;2023-03-19T12:53:17;100890.77;;;23.71;26.67
34658;BME280;20865;43.312;27.152;2023-03-19T12:55:43;100894.01;;;23.76;26.68
34658;BME280;20865;43.312;27.152;2023-03-19T12:58:35;100891.23;;;23.71;26.38
34658;BME280;20865;43.312;27.152;2023-03-19T13:01:07;100889.30;;;23.60;26.86
34658;BME280;20865;43.312;27.152;2023-03-19T13:03:31;100885.42;;;23.70;27.00
34658;BME280;20865;43.312;27.152;2023-03-19T13:06:04;100883.45;;;23.72;26.70
34658;BME280;20865;43.312;27.152;2023-03-19T13:11:19;100881.52;;;23.67;26.68
34658;BME280;20865;43.312;27.152;2023-03-19T13:13:50;100876.16;;;23.60;26.65
34658;BME280;20865;43.312;27.152;2023-03-19T13:21:30;100876.88;;;23.69;26.39
34658;BME280;20865;43.312;27.152;2023-03-19T13:24:05;100874.64;;;23.68;25.67
34658;BME280;20865;43.312;27.152;2023-03-19T13:26:33;100863.97;;;23.71;26.05
34658;BME280;20865;43.312;27.152;2023-03-19T13:29:01;100863.97;;;23.52;25.96
34658;BME280;20865;43.312;27.152;2023-03-19T13:31:32;100866.11;;;23.54;26.58
34658;BME280;20865;43.312;27.152;2023-03-19T13:34:00;100859.39;;;23.53;26.33
34658;BME280;20865;43.312;27.152;2023-03-19T13:36:28;100863.61;;;23.51;26.36
34658;BME280;20865;43.312;27.152;2023-03-19T13:38:56;100858.66;;;23.51;26.59
34658;BME280;20865;43.312;27.152;2023-03-19T13:46:49;100850.70;;;23.48;27.01
34658;BME280;20865;43.312;27.152;2023-03-19T13:49:27;100847.66;;;23.58;26.84
34658;BME280;20865;43.312;27.152;2023-03-19T13:51:58;100844.39;;;23.53;26.30
34658;BME280;20865;43.312;27.152;2023-03-19T13:54:33;100844.39;;;23.53;26.74
34658;BME280;20865;43.312;27.152;2023-03-19T13:59:33;100840.80;;;23.52;26.71